Time;durP1;ratioP1;P1;durP2;ratioP2;P2;SDS_P1;SDS_P2;PMS_P1;PMS_P2;Temp;Humidity;BMP_temperature;BMP_pressure;BME280_temperature;BME280_humidity;BME280_pressure;Samples;Min_cycle;Max_cycle;Signal;HPM_P1;HPM_P2
2022/07/25 00:00:30;;;;;;;11.45;7.57;;;;;;;19.48;100.00;101038.81;5246701;28;20396;-71
2022/07/25 00:03:00;;;;;;;15.60;7.57;;;;;;;19.47;100.00;101036.28;5243203;28;20063;-71
2022/07/25 00:05:31;;;;;;;12.60;6.97;;;;;;;19.46;100.00;101040.91;5236086;28;20104;-71
2022/07/25 00:08:01;;;;;;;11.43;6.53;;;;;;;19.49;100.00;101040.47;5259895;28;20035;-71
2022/07/25 00:10:32;;;;;;;10.80;6.90;;;;;;;19.48;100.00;101030.66;5246249;28;20030;-71
2022/07/25 00:13:03;;;;;;;14.55;7.07;;;;;;;19.44;100.00;101020.44;5246874;28;20504;-72
2022/07/25 00:15:33;;;;;;;11.13;6.80;;;;;;;19.37;100.00;101021.28;5259404;28;20093;-71
2022/07/25 00:18:04;;;;;;;9.18;6.85;;;;;;;19.31;100.00;101019.44;5246129;28;20039;-71
2022/07/25 00:20:34;;;;;;;14.05;7.10;;;;;;;19.25;100.00;101005.91;5246078;28;20367;-71
2022/07/25 00:23:05;;;;;;;11.10;6.45;;;;;;;19.18;100.00;101005.09;5245792;28;20028;-71
2022/07/25 00:25:35;;;;;;;13.32;6.95;;;;;;;19.12;100.00;101001.38;5245597;28;20024;-71
2022/07/25 00:28:06;;;;;;;11.70;7.22;;;;;;;19.11;100.00;100994.28;5255519;28;20028;-71
2022/07/25 00:30:36;;;;;;;11.07;6.28;;;;;;;19.14;100.00;100994.69;5266713;28;20081;-71
2022/07/25 00:33:07;;;;;;;11.70;6.82;;;;;;;19.18;100.00;100991.50;5256070;28;20077;-71
2022/07/25 00:35:37;;;;;;;9.20;6.13;;;;;;;19.20;100.00;100983.97;5258395;28;20028;-71
2022/07/25 00:38:08;;;;;;;12.73;6.43;;;;;;;19.23;100.00;100987.09;5246053;28;20021;-71
2022/07/25 00:40:38;;;;;;;10.85;5.82;;;;;;;19.24;100.00;100977.88;5264786;28;20097;-71
2022/07/25 00:43:09;;;;;;;13.27;5.80;;;;;;;19.24;100.00;100979.78;5253923;28;20037;-71
2022/07/25 00:45:39;;;;;;;11.05;6.35;;;;;;;19.23;100.00;100976.22;5252060;28;20023;-71
2022/07/25 00:48:10;;;;;;;12.13;6.38;;;;;;;19.25;100.00;100982.25;5251381;28;20059;-71
2022/07/25 00:50:41;;;;;;;10.80;6.82;;;;;;;19.24;100.00;100972.44;5253725;28;20028;-71
2022/07/25 00:53:11;;;;;;;10.02;6.22;;;;;;;19.24;100.00;100969.72;5250859;28;20052;-71
2022/07/25 00:55:42;;;;;;;12.25;6.10;;;;;;;19.26;100.00;100969.50;5251361;28;20227;-71
2022/07/25 00:58:13;;;;;;;14.32;6.13;;;;;;;19.25;100.00;100959.66;5262210;28;20481;-71
2022/07/25 01:00:43;;;;;;;11.93;7.00;;;;;;;19.21;100.00;100953.84;5266347;28;20481;-71
2022/07/25 01:03:15;;;;;;;9.85;5.57;;;;;;;19.19;100.00;100955.13;5242581;28;20027;-71
2022/07/25 01:05:46;;;;;;;11.85;5.97;;;;;;;19.18;100.00;100953.44;5237148;28;20028;-71
2022/07/25 01:08:18;;;;;;;14.00;6.72;;;;;;;19.15;100.00;100955.56;5251813;28;20032;-71
2022/07/25 01:10:51;;;;;;;12.65;6.88;;;;;;;19.15;100.00;100949.28;5251757;28;20371;-71
2022/07/25 01:13:21;;;;;;;21.35;10.77;;;;;;;19.12;100.00;100945.09;5245472;28;20035;-71
2022/07/25 01:15:52;;;;;;;16.17;8.05;;;;;;;19.11;100.00;100940.72;5244600;28;20474;-71
2022/07/25 01:18:22;;;;;;;16.25;8.00;;;;;;;19.11;100.00;100937.19;5245087;28;20509;-71
2022/07/25 01:20:53;;;;;;;12.27;8.10;;;;;;;19.11;100.00;100931.72;5245420;28;20478;-71
2022/07/25 01:23:24;;;;;;;15.13;7.40;;;;;;;19.10;100.00;100930.91;5244880;28;20017;-72
2022/07/25 01:26:02;;;;;;;14.50;7.53;;;;;;;19.10;100.00;100925.47;5264079;28;20448;-71
2022/07/25 01:28:45;;;;;;;20.75;7.70;;;;;;;19.10;100.00;100924.63;5265773;28;20107;-72
2022/07/25 01:31:16;;;;;;;14.60;7.68;;;;;;;19.10;100.00;100920.03;5256334;28;20107;-71
2022/07/25 01:33:47;;;;;;;16.13;7.45;;;;;;;19.09;100.00;100923.81;5260969;28;20031;-71
2022/07/25 01:36:17;;;;;;;11.77;7.10;;;;;;;19.07;100.00;100923.19;5254931;28;20475;-71
2022/07/25 01:38:48;;;;;;;11.05;6.47;;;;;;;19.07;100.00;100919.63;5244752;28;20020;-71
2022/07/25 01:41:18;;;;;;;15.75;7.03;;;;;;;19.09;100.00;100922.97;5245004;28;20024;-70
2022/07/25 01:43:49;;;;;;;10.10;6.57;;;;;;;19.12;100.00;100915.19;5245080;28;20028;-71
2022/07/25 01:46:19;;;;;;;9.98;6.22;;;;;;;19.12;100.00;100919.81;5244276;28;20673;-71
2022/07/25 01:48:50;;;;;;;10.40;6.25;;;;;;;19.13;100.00;100919.59;5258300;28;20024;-71
2022/07/25 01:51:21;;;;;;;15.35;7.25;;;;;;;19.13;100.00;100916.06;5258595;28;20020;-71
2022/07/25 01:53:51;;;;;;;14.60;6.22;;;;;;;19.14;100.00;100912.28;5244768;28;20108;-71
2022/07/25 01:56:22;;;;;;;10.60;6.65;;;;;;;19.12;100.00;100911.63;5245854;28;20025;-71
2022/07/25 01:58:52;;;;;;;15.57;6.95;;;;;;;19.10;100.00;100897.44;5255877;28;20120;-72
2022/07/25 02:01:23;;;;;;;19.15;7.57;;;;;;;19.12;100.00;100904.31;5248115;28;20043;-71
2022/07/25 02:03:54;;;;;;;13.43;7.30;;;;;;;19.31;100.00;100910.66;5254771;28;20024;-72
2022/07/25 02:06:24;;;;;;;8.60;6.30;;;;;;;19.44;100.00;100917.88;5244100;28;20047;-72
2022/07/25 02:08:55;;;;;;;12.85;6.63;;;;;;;19.38;100.00;100903.28;5257165;28;20020;-70
2022/07/25 02:11:26;;;;;;;12.13;6.82;;;;;;;19.31;100.00;100904.38;5245989;28;20525;-71
2022/07/25 02:13:57;;;;;;;9.77;5.95;;;;;;;19.33;100.00;100905.84;5256405;28;20034;-70
2022/07/25 02:16:29;;;;;;;9.63;6.32;;;;;;;19.33;100.00;100897.69;5244052;28;20040;-70
2022/07/25 02:18:59;;;;;;;9.80;5.88;;;;;;;19.27;100.00;100897.72;5258154;28;20032;-70
2022/07/25 02:21:30;;;;;;;13.43;6.40;;;;;;;19.17;100.00;100906.38;5244925;28;20025;-71
2022/07/25 02:24:01;;;;;;;12.60;6.35;;;;;;;19.15;100.00;100908.50;5257709;28;20028;-70
2022/07/25 02:26:31;;;;;;;9.82;5.93;;;;;;;19.13;100.00;100910.59;5244257;28;20021;-70
2022/07/25 02:29:03;;;;;;;8.77;5.70;;;;;;;19.10;100.00;100901.00;5244041;28;20033;-71
2022/07/25 02:31:33;;;;;;;11.05;6.40;;;;;;;19.08;100.00;100910.44;5244122;28;20021;-70
2022/07/25 02:34:04;;;;;;;7.68;5.85;;;;;;;19.02;100.00;100906.69;5244237;28;20032;-70
2022/07/25 02:36:35;;;;;;;8.40;5.90;;;;;;;18.95;100.00;100905.09;5243837;28;20056;-70
2022/07/25 02:39:05;;;;;;;14.65;6.53;;;;;;;18.89;100.00;100906.81;5250365;28;20333;-70
2022/07/25 02:41:36;;;;;;;11.75;6.75;;;;;;;18.82;100.00;100895.97;5251512;28;20044;-70
2022/07/25 02:44:06;;;;;;;10.18;6.05;;;;;;;18.76;100.00;100891.41;5254340;28;20016;-70
2022/07/25 02:46:37;;;;;;;10.63;5.78;;;;;;;18.73;100.00;100897.28;5265824;28;20027;-70
2022/07/25 02:49:07;;;;;;;10.10;6.68;;;;;;;18.69;100.00;100885.19;5247904;28;20031;-70
2022/07/25 02:51:38;;;;;;;12.68;6.32;;;;;;;18.62;100.00;100878.91;5248097;28;20031;-70
2022/07/25 02:54:08;;;;;;;11.13;6.63;;;;;;;18.57;100.00;100878.75;5247400;28;20034;-70
2022/07/25 02:56:39;;;;;;;8.82;6.65;;;;;;;18.52;100.00;100868.53;5247614;28;20058;-70
2022/07/25 02:59:09;;;;;;;11.98;6.60;;;;;;;18.48;100.00;100871.91;5258674;28;20036;-70
2022/07/25 03:01:40;;;;;;;10.20;6.78;;;;;;;18.44;100.00;100876.13;5254612;28;20016;-70
2022/07/25 03:04:10;;;;;;;10.07;6.35;;;;;;;18.41;100.00;100871.94;5242004;28;20017;-70
2022/07/25 03:06:41;;;;;;;11.90;7.05;;;;;;;18.35;100.00;100868.22;5254734;28;20027;-70
2022/07/25 03:09:12;;;;;;;10.48;6.47;;;;;;;18.52;100.00;100876.66;5267158;28;20492;-70
2022/07/25 03:11:42;;;;;;;17.05;7.20;;;;;;;18.54;100.00;100879.19;5247533;28;20029;-70
2022/07/25 03:14:12;;;;;;;9.82;6.40;;;;;;;18.51;100.00;100866.88;5262554;28;20118;-70
2022/07/25 03:16:43;;;;;;;10.30;6.63;;;;;;;18.44;100.00;100854.38;5268472;28;20028;-70
2022/07/25 03:19:13;;;;;;;11.18;6.40;;;;;;;18.37;100.00;100855.25;5251472;28;20021;-70
2022/07/25 03:21:44;;;;;;;11.93;6.63;;;;;;;18.27;100.00;100857.63;5247410;28;20119;-70
2022/07/25 03:24:15;;;;;;;9.77;6.60;;;;;;;18.19;100.00;100867.88;5250551;28;20166;-70
2022/07/25 03:26:46;;;;;;;12.50;7.03;;;;;;;18.17;100.00;100876.22;5256885;28;20103;-70
2022/07/25 03:29:16;;;;;;;12.77;7.15;;;;;;;18.10;100.00;100868.13;5265738;28;20553;-70
2022/07/25 03:31:47;;;;;;;9.50;5.90;;;;;;;18.07;100.00;100862.28;5255331;28;20553;-70
2022/07/25 03:34:17;;;;;;;10.50;6.78;;;;;;;18.04;100.00;100855.41;5266772;28;20020;-70
2022/07/25 03:36:48;;;;;;;16.90;6.57;;;;;;;18.00;100.00;100854.16;5253669;28;20020;-70
2022/07/25 03:39:20;;;;;;;13.95;6.57;;;;;;;17.97;100.00;100854.63;5246838;28;20085;-70
2022/07/25 03:41:51;;;;;;;10.00;6.60;;;;;;;17.97;100.00;100854.63;5247041;28;20100;-70
2022/07/25 03:44:23;;;;;;;12.80;6.53;;;;;;;17.98;100.00;100867.13;5246643;28;20025;-70
2022/07/25 03:46:54;;;;;;;10.55;6.07;;;;;;;18.14;100.00;100875.84;5250099;28;20097;-70
2022/07/25 03:49:24;;;;;;;11.10;6.47;;;;;;;18.21;100.00;100884.78;5267745;28;20132;-70
2022/07/25 03:51:55;;;;;;;10.30;6.47;;;;;;;18.27;100.00;100870.34;5249914;28;20020;-70
2022/07/25 03:54:25;;;;;;;13.25;6.90;;;;;;;18.27;100.00;100881.19;5245950;28;20070;-70
2022/07/25 03:56:56;;;;;;;10.30;6.25;;;;;;;18.21;100.00;100871.19;5243635;28;20027;-70
2022/07/25 03:59:26;;;;;;;11.88;6.47;;;;;;;18.17;100.00;100875.38;5267195;28;20108;-70
2022/07/25 04:01:57;;;;;;;11.70;6.80;;;;;;;18.13;100.00;100868.75;5253660;28;20359;-70
2022/07/25 04:04:27;;;;;;;11.52;6.55;;;;;;;18.19;100.00;100871.44;5240025;28;20216;-70
2022/07/25 04:06:58;;;;;;;10.10;6.35;;;;;;;18.19;100.00;100873.31;5257844;28;20070;-70
2022/07/25 04:09:28;;;;;;;13.50;6.63;;;;;;;18.22;100.00;100873.69;5261822;28;20027;-70
2022/07/25 04:11:59;;;;;;;13.98;6.68;;;;;;;18.25;100.00;100862.41;5267787;28;20027;-70
2022/07/25 04:14:29;;;;;;;9.15;6.68;;;;;;;18.24;100.00;100876.22;5248094;28;20059;-70
2022/07/25 04:17:00;;;;;;;11.63;7.05;;;;;;;18.26;100.00;100876.81;5258459;28;20497;-70
2022/07/25 04:19:31;;;;;;;14.00;6.45;;;;;;;18.27;100.00;100873.91;5252536;28;20498;-70
2022/07/25 04:22:01;;;;;;;10.13;6.95;;;;;;;18.30;100.00;100875.34;5259060;28;20473;-70
2022/07/25 04:24:32;;;;;;;11.05;6.68;;;;;;;18.35;100.00;100876.34;5246121;28;20032;-70
2022/07/25 04:27:02;;;;;;;11.88;6.72;;;;;;;18.45;100.00;100880.50;5246147;28;20107;-70
2022/07/25 04:29:33;;;;;;;15.30;6.95;;;;;;;18.53;100.00;100888.41;5246010;28;20485;-70
2022/07/25 04:32:04;;;;;;;12.10;6.93;;;;;;;18.57;100.00;100879.56;5245842;28;20070;-70
2022/07/25 04:34:34;;;;;;;11.30;7.13;;;;;;;18.66;100.00;100876.59;5245471;28;20028;-70
2022/07/25 04:37:05;;;;;;;13.20;7.53;;;;;;;18.73;100.00;100878.28;5245609;28;20106;-70
2022/07/25 04:39:36;;;;;;;12.60;6.95;;;;;;;18.82;100.00;100867.94;5255548;28;20416;-70
2022/07/25 04:42:07;;;;;;;11.90;7.65;;;;;;;18.91;100.00;100882.13;5249387;28;20040;-70
2022/07/25 04:44:37;;;;;;;13.32;8.00;;;;;;;18.98;100.00;100877.47;5245252;28;20541;-70
2022/07/25 04:47:08;;;;;;;13.38;6.85;;;;;;;19.08;100.00;100875.09;5251347;28;20019;-70
2022/07/25 04:49:38;;;;;;;12.10;7.80;;;;;;;19.16;100.00;100874.81;5253501;28;20020;-70
2022/07/25 04:52:09;;;;;;;12.60;7.75;;;;;;;19.24;100.00;100874.53;5251860;28;20050;-70
2022/07/25 04:54:39;;;;;;;12.35;7.13;;;;;;;19.32;100.00;100871.50;5252230;28;20463;-70
2022/07/25 04:57:10;;;;;;;12.27;8.05;;;;;;;19.39;100.00;100872.31;5246125;28;20023;-70
2022/07/25 04:59:40;;;;;;;10.77;7.32;;;;;;;19.47;100.00;100873.88;5252378;28;20478;-70
2022/07/25 05:02:11;;;;;;;17.20;7.75;;;;;;;19.55;100.00;100878.22;5266867;28;20103;-70
2022/07/25 05:04:41;;;;;;;12.65;7.28;;;;;;;19.62;100.00;100888.00;5235496;28;20009;-70
2022/07/25 05:07:12;;;;;;;10.23;6.65;;;;;;;19.73;100.00;100891.03;5256019;28;20039;-70
2022/07/25 05:09:43;;;;;;;10.00;6.38;;;;;;;19.78;100.00;100889.31;5261183;28;20047;-70
2022/07/25 05:12:13;;;;;;;10.70;6.82;;;;;;;19.87;100.00;100890.66;5257684;28;20081;-70
2022/07/25 05:14:44;;;;;;;13.70;7.18;;;;;;;19.94;100.00;100892.50;5250132;28;20036;-70
2022/07/25 05:17:16;;;;;;;14.90;7.40;;;;;;;19.97;100.00;100884.69;5252649;28;20090;-71
2022/07/25 05:19:46;;;;;;;9.52;7.00;;;;;;;20.00;100.00;100895.13;5244908;28;20020;-70
2022/07/25 05:22:17;;;;;;;11.73;6.85;;;;;;;20.06;100.00;100890.66;5258981;28;20031;-70
2022/07/25 05:24:47;;;;;;;10.32;6.38;;;;;;;20.12;100.00;100896.03;5257174;28;20025;-70
2022/07/25 05:27:18;;;;;;;11.35;6.00;;;;;;;20.20;100.00;100900.34;5260042;28;20016;-70
2022/07/25 05:29:48;;;;;;;8.90;5.15;;;;;;;20.25;100.00;100899.66;5265114;28;20024;-71
2022/07/25 05:32:19;;;;;;;8.60;5.15;;;;;;;20.36;100.00;100910.63;5264649;28;20029;-70
2022/07/25 05:34:49;;;;;;;6.30;4.47;;;;;;;20.40;100.00;100911.81;5263531;28;20474;-71
2022/07/25 05:37:20;;;;;;;9.23;4.55;;;;;;;20.45;100.00;100900.25;5251714;28;20027;-71
2022/07/25 05:39:51;;;;;;;10.88;4.93;;;;;;;20.44;100.00;100913.03;5253509;28;20032;-70
2022/07/25 05:42:21;;;;;;;11.70;4.40;;;;;;;20.46;100.00;100917.41;5263455;28;20108;-71
2022/07/25 05:44:52;;;;;;;11.40;4.63;;;;;;;20.45;100.00;100911.13;5252001;28;20029;-70
2022/07/25 05:47:22;;;;;;;9.63;4.38;;;;;;;20.58;100.00;100904.69;5257441;28;20055;-70
2022/07/25 05:49:53;;;;;;;6.22;3.63;;;;;;;20.60;100.00;100905.31;5258600;28;20039;-71
2022/07/25 05:52:23;;;;;;;10.20;4.25;;;;;;;20.63;100.00;100907.56;5244908;28;20547;-71
2022/07/25 05:54:54;;;;;;;8.65;3.63;;;;;;;20.66;100.00;100904.38;5245062;28;20074;-70
2022/07/25 05:57:24;;;;;;;9.30;3.80;;;;;;;20.73;100.00;100909.72;5253485;28;20032;-71
2022/07/25 05:59:55;;;;;;;10.60;3.88;;;;;;;20.80;100.00;100907.75;5248658;28;20111;-71
2022/07/25 06:02:25;;;;;;;7.50;3.75;;;;;;;20.84;100.00;100909.78;5245215;28;20474;-70
2022/07/25 06:04:56;;;;;;;8.77;4.00;;;;;;;20.95;100.00;100922.63;5230768;28;20056;-70
2022/07/25 06:07:27;;;;;;;8.40;3.53;;;;;;;21.05;100.00;100916.59;5244699;28;20024;-71
2022/07/25 06:09:57;;;;;;;8.73;3.33;;;;;;;21.17;100.00;100927.53;5244735;28;20033;-71
2022/07/25 06:12:28;;;;;;;10.32;3.67;;;;;;;21.26;100.00;100917.09;5245638;28;20437;-71
2022/07/25 06:14:59;;;;;;;13.75;4.10;;;;;;;21.22;100.00;100922.19;5256893;28;20039;-72
2022/07/25 06:17:29;;;;;;;6.15;3.88;;;;;;;21.24;100.00;100916.53;5246166;28;20058;-71
2022/07/25 06:20:00;;;;;;;11.65;3.92;;;;;;;21.24;100.00;100921.97;5248579;28;20024;-71
2022/07/25 06:22:30;;;;;;;18.92;5.00;;;;;;;21.22;100.00;100919.47;5262280;28;20122;-71
2022/07/25 06:25:02;;;;;;;8.60;3.33;;;;;;;21.20;100.00;100921.59;5247967;28;20021;-71
2022/07/25 06:27:32;;;;;;;6.93;2.97;;;;;;;21.24;100.00;100919.25;5261621;28;20024;-71
2022/07/25 06:30:05;;;;;;;10.05;3.45;;;;;;;21.18;100.00;100924.53;5248496;28;20055;-71
2022/07/25 06:32:36;;;;;;;13.45;2.70;;;;;;;21.17;100.00;100928.34;5268229;28;20473;-71
2022/07/25 06:35:06;;;;;;;12.77;3.13;;;;;;;21.23;100.00;100929.31;5268729;28;20035;-71
2022/07/25 06:37:38;;;;;;;8.30;2.95;;;;;;;21.19;100.00;100928.13;5248143;28;20064;-71
2022/07/25 06:40:09;;;;;;;10.60;3.65;;;;;;;21.23;100.00;100925.75;5247690;28;20111;-71
2022/07/25 06:42:43;;;;;;;7.35;2.85;;;;;;;21.29;100.00;100933.03;5257271;28;20107;-71
2022/07/25 06:45:15;;;;;;;11.90;3.17;;;;;;;21.30;100.00;100938.25;5252346;28;20020;-72
2022/07/25 06:47:45;;;;;;;10.45;3.53;;;;;;;21.26;100.00;100937.03;5248381;28;20103;-71
2022/07/25 06:50:17;;;;;;;8.30;3.50;;;;;;;21.21;100.00;100942.38;5262021;28;20039;-72
2022/07/25 06:52:48;;;;;;;11.57;3.08;;;;;;;21.18;100.00;100942.81;5260417;28;20032;-72
2022/07/25 06:55:18;;;;;;;11.82;3.20;;;;;;;21.18;100.00;100949.09;5248189;28;20028;-72
2022/07/25 06:57:49;;;;;;;7.20;3.13;;;;;;;21.37;100.00;100952.63;5261471;28;20024;-72
2022/07/25 07:00:19;;;;;;;7.60;2.83;;;;;;;22.22;100.00;100948.59;5255791;28;20031;-71
2022/07/25 07:03:08;;;;;;;7.28;3.08;;;;;;;23.11;100.00;100937.22;5265102;28;20024;-72
2022/07/25 07:05:40;;;;;;;7.15;2.60;;;;;;;24.24;100.00;100938.66;5250223;28;20477;-71
2022/07/25 07:08:10;;;;;;;12.32;2.92;;;;;;;24.94;100.00;100948.00;5249333;28;20031;-70
2022/07/25 07:10:41;;;;;;;6.03;2.53;;;;;;;25.18;100.00;100951.28;5247826;28;20028;-70
2022/07/25 07:13:14;;;;;;;12.57;3.13;;;;;;;25.80;100.00;100947.97;5261558;28;20061;-70
2022/07/25 07:15:48;;;;;;;14.73;2.67;;;;;;;26.06;100.00;100940.69;5246589;28;20032;-70
2022/07/25 07:18:19;;;;;;;9.18;2.75;;;;;;;26.42;100.00;100946.38;5247386;28;20024;-70
2022/07/25 07:20:51;;;;;;;7.82;2.28;;;;;;;27.03;100.00;100952.03;5247352;28;20158;-70
2022/07/25 07:23:21;;;;;;;5.22;2.45;;;;;;;27.01;100.00;100945.97;5258503;28;20024;-70
2022/07/25 07:25:51;;;;;;;7.55;2.90;;;;;;;26.84;100.00;100942.63;5253561;28;20027;-70
2022/07/25 07:28:22;;;;;;;9.82;2.90;;;;;;;27.54;100.00;100949.31;5255251;28;20021;-70
2022/07/25 07:30:52;;;;;;;9.68;2.65;;;;;;;27.30;100.00;100956.47;5253382;28;20025;-70
2022/07/25 07:33:23;;;;;;;5.65;2.17;;;;;;;27.81;100.00;100953.69;5254728;28;20029;-70
2022/07/25 07:35:55;;;;;;;6.93;2.15;;;;;;;28.20;100.00;100955.81;5233321;28;20034;-70
2022/07/25 07:38:26;;;;;;;5.45;1.85;;;;;;;28.57;100.00;100956.25;5249386;28;20024;-70
2022/07/25 07:40:56;;;;;;;9.02;2.00;;;;;;;28.67;100.00;100949.84;5259431;28;20470;-70
2022/07/25 07:43:30;;;;;;;7.07;2.13;;;;;;;27.71;100.00;100950.97;5247168;28;20098;-71
2022/07/25 07:46:01;;;;;;;10.32;2.33;;;;;;;27.18;100.00;100954.00;5246752;28;20020;-72
2022/07/25 07:48:32;;;;;;;6.85;2.67;;;;;;;26.44;100.00;100955.16;5251672;28;20504;-70
2022/07/25 07:51:04;;;;;;;8.05;2.40;;;;;;;26.57;100.00;100951.94;5255819;28;20107;-71
2022/07/25 07:56:23;;;;;;;8.75;2.28;;;;;;;27.97;100.00;100949.81;5248018;28;20024;-70
2022/07/25 07:58:54;;;;;;;5.82;1.90;;;;;;;27.87;100.00;100955.38;5257994;28;20490;-70
2022/07/25 08:01:25;;;;;;;6.30;2.35;;;;;;;28.28;100.00;100960.75;5250128;28;20031;-70
2022/07/25 08:03:56;;;;;;;8.45;2.53;;;;;;;28.35;100.00;100958.53;5251580;28;20036;-71
2022/07/25 08:06:27;;;;;;;5.55;1.75;;;;;;;28.23;100.00;100952.50;5243923;28;20385;-70
2022/07/25 08:08:57;;;;;;;4.90;2.05;;;;;;;28.02;100.00;100958.09;5246808;28;20067;-70
2022/07/25 08:11:28;;;;;;;3.70;2.15;;;;;;;27.17;100.00;100952.34;5259988;28;20020;-70
2022/07/25 08:13:59;;;;;;;5.90;2.03;;;;;;;27.22;100.00;100955.09;5246053;28;20419;-70
2022/07/25 08:16:29;;;;;;;13.13;2.50;;;;;;;27.10;100.00;100952.59;5259480;28;20029;-70
2022/07/25 08:19:00;;;;;;;4.22;1.92;;;;;;;27.62;100.00;100968.03;5246365;28;20033;-70
2022/07/25 08:21:30;;;;;;;5.35;1.75;;;;;;;27.73;100.00;100965.31;5254654;28;20074;-70
2022/07/25 08:24:01;;;;;;;7.82;2.00;;;;;;;27.96;100.00;100963.88;5251247;28;20050;-70
2022/07/25 08:26:32;;;;;;;8.27;2.47;;;;;;;28.70;100.00;100965.81;5245684;28;20028;-71
2022/07/25 08:29:03;;;;;;;6.18;2.30;;;;;;;28.80;100.00;100962.19;5245979;28;20058;-70
2022/07/25 08:31:33;;;;;;;6.75;2.38;;;;;;;29.11;100.00;100955.34;5246357;28;20036;-71
2022/07/25 08:34:04;;;;;;;6.10;2.40;;;;;;;28.91;100.00;100964.56;5246059;28;20378;-70
2022/07/25 08:36:34;;;;;;;4.10;2.13;;;;;;;27.95;100.00;100974.06;5258273;28;20031;-70
2022/07/25 08:39:05;;;;;;;5.57;2.47;;;;;;;27.62;100.00;100967.22;5260796;28;20036;-71
2022/07/25 08:41:39;;;;;;;7.70;2.40;;;;;;;28.34;100.00;100970.69;5258145;28;20031;-70
2022/07/25 08:44:11;;;;;;;;;;;;;;;28.17;100.00;100964.66;5232700;28;20020;-70
2022/07/25 08:46:43;;;;;;;15.27;2.70;;;;;;;28.70;100.00;100970.50;5245700;28;19916;-71
2022/07/25 08:49:13;;;;;;;7.95;2.20;;;;;;;28.63;100.00;100971.66;5245430;28;20025;-70
2022/07/25 08:51:44;;;;;;;7.88;2.35;;;;;;;28.08;100.00;100969.91;5259570;28;20034;-70
2022/07/25 08:54:15;;;;;;;5.78;1.80;;;;;;;28.25;100.00;100980.63;5254972;28;20048;-71
2022/07/25 08:56:46;;;;;;;12.68;2.78;;;;;;;28.05;100.00;100973.22;5252555;28;20024;-70
2022/07/25 08:59:16;;;;;;;4.53;2.03;;;;;;;28.04;100.00;100982.59;5266535;28;20061;-70
2022/07/25 09:01:47;;;;;;;6.78;2.20;;;;;;;27.99;100.00;100977.09;5247380;28;20028;-70
2022/07/25 09:04:18;;;;;;;6.72;2.03;;;;;;;28.30;100.00;100981.41;5231750;28;20086;-70
2022/07/25 09:06:50;;;;;;;4.78;1.90;;;;;;;28.88;100.00;100986.44;5245382;28;20082;-70
2022/07/25 09:09:35;;;;;;;7.38;2.10;;;;;;;29.11;98.88;100991.25;5247479;28;20055;-71
2022/07/25 09:12:06;;;;;;;;;;;;;;;29.19;100.00;100994.53;5255250;28;20102;-71
2022/07/25 09:14:52;;;;;;;6.93;2.22;;;;;;;29.64;97.43;100993.38;5244574;28;19912;-71
2022/07/25 09:17:23;;;;;;;7.47;2.03;;;;;;;29.32;96.83;100989.19;5245371;28;20113;-71
2022/07/25 09:19:55;;;;;;;5.80;2.10;;;;;;;29.04;100.00;100984.44;5250087;28;20085;-70
2022/07/25 09:22:26;;;;;;;8.50;2.40;;;;;;;28.90;100.00;100987.78;5245135;28;20413;-71
2022/07/25 09:24:56;;;;;;;6.95;2.00;;;;;;;28.48;99.15;100988.28;5244367;28;20034;-70
2022/07/25 09:27:33;;;;;;;3.58;1.65;;;;;;;28.73;96.49;100986.53;5245152;28;20494;-70
2022/07/25 09:30:12;;;;;;;8.07;2.25;;;;;;;28.90;95.61;100990.53;5245130;28;20028;-71
2022/07/25 09:32:43;;;;;;;10.10;2.47;;;;;;;28.62;96.66;100992.09;5245161;28;20108;-71
2022/07/25 09:35:14;;;;;;;4.28;1.95;;;;;;;28.15;95.17;100995.25;5245351;28;20131;-70
2022/07/25 09:37:44;;;;;;;9.35;2.30;;;;;;;27.91;97.71;100997.78;5265978;28;20061;-70
2022/07/25 09:40:15;;;;;;;7.30;2.35;;;;;;;27.88;99.13;100998.34;5265621;28;20034;-70
2022/07/25 09:42:49;;;;;;;5.35;2.08;;;;;;;27.77;100.00;100997.56;5256149;28;20521;-71
2022/07/25 09:45:20;;;;;;;6.50;1.75;;;;;;;28.26;99.44;100998.81;5244588;28;20489;-70
2022/07/25 09:48:09;;;;;;;4.05;1.90;;;;;;;28.47;97.64;100997.69;5245211;28;20093;-70
2022/07/25 09:50:39;;;;;;;6.18;1.90;;;;;;;28.70;96.68;100998.94;5239935;28;20390;-70
2022/07/25 09:53:10;;;;;;;5.65;1.90;;;;;;;28.69;94.41;100999.22;5266662;28;20020;-70
2022/07/25 09:55:41;;;;;;;6.75;2.03;;;;;;;28.87;93.36;100995.84;5248534;28;20036;-70
2022/07/25 09:58:12;;;;;;;3.70;1.80;;;;;;;28.87;94.14;100995.84;5262449;28;20082;-71
2022/07/25 10:00:44;;;;;;;3.25;1.70;;;;;;;28.61;95.58;101006.97;5249577;28;20397;-70
2022/07/25 10:03:28;;;;;;;5.63;1.75;;;;;;;29.14;91.31;101006.44;5262124;28;20029;-71
2022/07/25 10:06:15;;;;;;;4.65;1.92;;;;;;;28.85;95.30;101018.19;5262113;28;20016;-70
2022/07/25 10:08:47;;;;;;;4.45;1.70;;;;;;;28.25;96.35;101000.75;5248739;28;20029;-70
2022/07/25 10:11:19;;;;;;;4.43;1.77;;;;;;;28.55;94.79;100999.84;5254152;28;20035;-71
2022/07/25 10:13:51;;;;;;;5.00;1.77;;;;;;;28.95;93.96;100994.41;5257183;28;20082;-71
2022/07/25 10:16:23;;;;;;;6.18;2.17;;;;;;;28.61;94.19;100992.34;5262029;28;20033;-70
2022/07/25 10:18:56;;;;;;;7.00;2.17;;;;;;;28.70;93.88;101001.69;5262466;28;20099;-71
2022/07/25 10:21:28;;;;;;;5.10;2.10;;;;;;;28.36;96.90;101001.56;5253019;28;20016;-71
2022/07/25 10:24:09;;;;;;;7.97;2.35;;;;;;;28.21;96.46;100990.53;5248348;28;20527;-71
2022/07/25 10:26:51;;;;;;;6.20;1.95;;;;;;;27.80;96.76;100999.72;5248842;28;20393;-71
2022/07/25 10:29:32;;;;;;;6.00;2.05;;;;;;;27.69;100.00;101014.59;5254406;28;20095;-70
2022/07/25 10:32:24;;;;;;;3.72;1.67;;;;;;;27.66;100.00;101015.16;5255759;28;20055;-70
2022/07/25 10:34:54;;;;;;;3.15;1.67;;;;;;;27.93;98.61;101011.31;5269637;28;20020;-70
2022/07/25 10:37:27;;;;;;;4.65;1.75;;;;;;;28.22;97.39;101020.63;5249777;28;20436;-71
2022/07/25 10:39:58;;;;;;;6.35;1.80;;;;;;;27.94;97.72;101010.19;5248118;28;20098;-71
2022/07/25 10:42:31;;;;;;;6.57;2.13;;;;;;;27.86;99.19;101012.44;5255311;28;20020;-71
2022/07/25 10:45:04;;;;;;;5.57;2.05;;;;;;;27.37;97.66;101014.88;5253952;28;20028;-70
2022/07/25 10:47:38;;;;;;;4.88;1.73;;;;;;;27.28;99.23;101017.34;5248109;28;20024;-71
2022/07/25 10:50:10;;;;;;;4.97;1.90;;;;;;;27.07;100.00;101023.91;5247983;28;20055;-70
2022/07/25 10:52:41;;;;;;;3.58;2.08;;;;;;;27.06;100.00;101022.22;5247848;28;20024;-70
2022/07/25 10:55:22;;;;;;;6.03;1.65;;;;;;;26.80;100.00;101035.09;5266112;28;20024;-70
2022/07/25 10:58:05;;;;;;;3.50;1.92;;;;;;;26.68;100.00;101040.81;5261507;28;20028;-70
2022/07/25 11:00:43;;;;;;;7.47;2.42;;;;;;;26.46;100.00;101041.03;5257435;28;20409;-71
2022/07/25 11:03:14;;;;;;;6.70;2.22;;;;;;;26.14;100.00;101042.97;5263023;28;20512;-70
2022/07/25 11:05:46;;;;;;;9.20;2.20;;;;;;;26.24;100.00;101040.28;5247146;28;20056;-70
2022/07/25 11:08:16;;;;;;;20.33;2.85;;;;;;;26.13;100.00;101041.34;5247704;28;20028;-70
2022/07/25 11:11:02;;;;;;;8.05;2.97;;;;;;;26.12;100.00;101039.69;5247550;28;20101;-70
2022/07/25 11:13:50;;;;;;;4.75;2.38;;;;;;;25.95;100.00;101050.81;5257750;28;20047;-70
2022/07/25 11:16:25;;;;;;;6.00;2.20;;;;;;;25.75;100.00;101046.81;5268054;28;20389;-70
2022/07/25 11:18:56;;;;;;;5.57;2.20;;;;;;;25.78;100.00;101048.22;5254307;28;20448;-70
2022/07/25 11:21:26;;;;;;;8.50;2.25;;;;;;;26.16;100.00;101054.56;5247013;28;20036;-70
2022/07/25 11:23:57;;;;;;;5.55;2.35;;;;;;;26.14;100.00;101045.72;5249653;28;20032;-70
2022/07/25 11:26:27;;;;;;;6.47;2.80;;;;;;;25.89;100.00;101051.88;5268040;28;20012;-70
2022/07/25 11:28:58;;;;;;;6.85;2.97;;;;;;;25.83;100.00;101051.00;5251076;28;20081;-70
2022/07/25 11:31:30;;;;;;;9.38;2.53;;;;;;;25.25;100.00;101064.47;5247718;28;20372;-70
2022/07/25 11:34:00;;;;;;;6.55;2.88;;;;;;;24.72;100.00;101068.75;5247045;28;20437;-70
2022/07/25 11:36:31;;;;;;;7.35;2.13;;;;;;;24.52;100.00;101068.50;5259389;28;20076;-70